Time;durP1;ratioP1;P1;durP2;ratioP2;P2;SDS_P1;SDS_P2;PMS_P1;PMS_P2;Temp;Humidity;BMP_temperature;BMP_pressure;BME280_temperature;BME280_humidity;BME280_pressure;Samples;Min_cycle;Max_cycle;Signal;HPM_P1;HPM_P2
2023/06/26 00:00:26;;;;;;;5.13;2.83;;;22.80;99.90;;;;;;5036711;28;20184;-65
2023/06/26 00:02:52;;;;;;;4.47;2.70;;;22.80;99.90;;;;;;5036571;28;20204;-65
2023/06/26 00:05:18;;;;;;;3.70;3.00;;;22.90;99.90;;;;;;5036659;28;20541;-65
2023/06/26 00:07:43;;;;;;;4.60;2.75;;;22.90;99.90;;;;;;5036852;28;20180;-65
2023/06/26 00:10:09;;;;;;;4.85;2.85;;;22.90;99.90;;;;;;5036630;28;20176;-66
2023/06/26 00:12:35;;;;;;;3.75;2.92;;;22.80;99.90;;;;;;5036731;28;20637;-66
2023/06/26 00:15:00;;;;;;;5.07;3.30;;;22.70;99.90;;;;;;5019031;28;20275;-65
2023/06/26 00:17:26;;;;;;;7.70;3.28;;;22.70;99.90;;;;;;5036174;28;20293;-65
2023/06/26 00:19:52;;;;;;;3.83;3.08;;;22.80;99.90;;;;;;5036218;28;20172;-65
2023/06/26 00:22:18;;;;;;;3.28;2.90;;;22.70;99.90;;;;;;5036446;28;20255;-65
2023/06/26 00:24:47;;;;;;;4.07;3.10;;;22.70;99.90;;;;;;5036431;28;20179;-65
2023/06/26 00:27:12;;;;;;;7.30;3.15;;;22.60;99.90;;;;;;5036293;28;20238;-65
2023/06/26 00:29:38;;;;;;;4.22;3.30;;;22.60;99.90;;;;;;5036358;28;20176;-65
2023/06/26 00:32:04;;;;;;;4.05;3.03;;;22.50;99.90;;;;;;5036197;28;20164;-65
2023/06/26 00:34:30;;;;;;;3.95;3.08;;;22.40;99.90;;;;;;5036069;28;20226;-66
2023/06/26 00:36:56;;;;;;;4.65;3.10;;;22.40;99.90;;;;;;5036161;28;20176;-65
2023/06/26 00:39:22;;;;;;;4.13;3.20;;;22.40;99.90;;;;;;5018305;28;20172;-65
2023/06/26 00:41:47;;;;;;;3.97;3.03;;;22.40;99.90;;;;;;5035999;28;20180;-65
2023/06/26 00:44:13;;;;;;;5.93;2.90;;;22.40;99.90;;;;;;5035814;28;20753;-65
2023/06/26 00:46:39;;;;;;;4.72;3.10;;;22.30;99.90;;;;;;5035801;28;20584;-65
2023/06/26 00:49:05;;;;;;;4.68;3.08;;;22.30;99.90;;;;;;5035721;28;20171;-65
2023/06/26 00:51:31;;;;;;;3.88;2.90;;;22.30;99.90;;;;;;5035893;28;20261;-65
2023/06/26 00:53:57;;;;;;;5.13;2.95;;;22.30;99.90;;;;;;5035861;28;20176;-65
2023/06/26 00:56:23;;;;;;;6.68;3.20;;;22.30;99.90;;;;;;5035925;28;20250;-65
2023/06/26 00:58:49;;;;;;;5.15;3.42;;;22.30;99.90;;;;;;5035718;28;20174;-64
2023/06/26 01:01:17;;;;;;;5.80;2.60;;;22.20;99.90;;;;;;5035561;28;20606;-65
2023/06/26 01:03:45;;;;;;;3.75;3.15;;;22.20;99.90;;;;;;5035173;28;20215;-64
2023/06/26 01:06:13;;;;;;;4.05;2.88;;;22.10;99.90;;;;;;5035684;28;20172;-64
2023/06/26 01:08:41;;;;;;;3.28;2.97;;;22.10;99.90;;;;;;5035572;28;20168;-64
2023/06/26 01:11:07;;;;;;;5.88;2.90;;;22.10;99.90;;;;;;5035421;28;20179;-64
2023/06/26 01:13:34;;;;;;;3.92;3.15;;;22.10;99.90;;;;;;5035333;28;20267;-64
2023/06/26 01:16:00;;;;;;;4.40;3.25;;;22.10;99.90;;;;;;5035220;28;20172;-64
2023/06/26 01:18:26;;;;;;;8.32;3.63;;;22.10;99.90;;;;;;5035348;28;20242;-64
2023/06/26 01:20:53;;;;;;;5.60;3.15;;;22.00;99.90;;;;;;5035374;28;20206;-64
2023/06/26 01:23:31;;;;;;;5.15;3.08;;;22.00;99.90;;;;;;5035048;28;20203;-64
2023/06/26 01:26:20;;;;;;;6.40;3.10;;;21.90;99.90;;;;;;5035194;28;20626;-64
2023/06/26 01:28:46;;;;;;;6.85;3.20;;;21.90;99.90;;;;;;5035248;28;20243;-64
2023/06/26 01:31:13;;;;;;;4.57;3.38;;;22.00;99.90;;;;;;5034851;28;20637;-65
2023/06/26 01:33:40;;;;;;;7.88;3.63;;;21.90;99.90;;;;;;5035021;28;20168;-64
2023/06/26 01:36:06;;;;;;;5.88;3.03;;;21.80;99.90;;;;;;5034837;28;20176;-65
2023/06/26 01:38:32;;;;;;;6.10;3.47;;;21.80;99.90;;;;;;5034947;28;20629;-64
2023/06/26 01:40:59;;;;;;;8.18;3.38;;;21.70;99.90;;;;;;5034786;28;20302;-64
2023/06/26 01:43:54;;;;;;;6.00;3.60;;;21.70;99.90;;;;;;5034685;28;20534;-64
2023/06/26 01:46:50;;;;;;;5.03;3.03;;;21.80;99.90;;;;;;5034901;28;20176;-64
2023/06/26 01:49:33;;;;;;;6.25;3.53;;;21.70;99.90;;;;;;5034614;28;20179;-65
2023/06/26 01:52:12;;;;;;;4.53;3.08;;;21.70;99.90;;;;;;5035003;28;20168;-64
2023/06/26 01:55:02;;;;;;;5.72;3.33;;;21.80;99.90;;;;;;5034742;28;20176;-64
2023/06/26 01:57:29;;;;;;;5.72;3.35;;;21.70;99.90;;;;;;5034538;28;20172;-64
2023/06/26 01:59:56;;;;;;;5.18;3.55;;;21.70;99.90;;;;;;5034382;28;20176;-64
2023/06/26 02:02:24;;;;;;;6.75;3.45;;;21.70;99.90;;;;;;5034486;28;20262;-64
2023/06/26 02:04:50;;;;;;;5.32;3.40;;;21.60;99.90;;;;;;5034433;28;20191;-64
2023/06/26 02:07:16;;;;;;;5.28;3.10;;;21.60;99.90;;;;;;5034283;28;20176;-64
2023/06/26 02:09:42;;;;;;;6.03;3.60;;;21.60;99.90;;;;;;5034219;28;20226;-64
2023/06/26 02:12:08;;;;;;;6.50;3.35;;;21.50;99.90;;;;;;5034285;28;20176;-64
2023/06/26 02:14:33;;;;;;;6.60;3.20;;;21.50;99.90;;;;;;5033369;28;20653;-64
2023/06/26 02:17:00;;;;;;;7.57;3.30;;;21.50;99.90;;;;;;5034094;28;20633;-64
2023/06/26 02:19:27;;;;;;;5.13;3.60;;;21.40;99.90;;;;;;5034285;28;20187;-65
2023/06/26 02:21:53;;;;;;;6.38;3.65;;;21.40;99.90;;;;;;5034083;28;20183;-65
2023/06/26 02:24:19;;;;;;;7.47;3.15;;;21.40;99.90;;;;;;5034071;28;20215;-64
2023/06/26 02:26:45;;;;;;;7.38;3.55;;;21.40;99.90;;;;;;5033937;28;20176;-64
2023/06/26 02:29:11;;;;;;;6.07;3.60;;;21.30;99.90;;;;;;5033801;28;20529;-64
2023/06/26 02:31:37;;;;;;;7.30;3.53;;;21.30;99.90;;;;;;5034057;28;20182;-64
2023/06/26 02:34:03;;;;;;;7.38;3.53;;;21.30;99.90;;;;;;5033804;28;20255;-64
2023/06/26 02:36:29;;;;;;;7.20;3.75;;;21.30;99.90;;;;;;5033827;28;20699;-64
2023/06/26 02:38:55;;;;;;;10.30;3.42;;;21.30;99.90;;;;;;5033775;28;20172;-64
2023/06/26 02:41:20;;;;;;;8.32;3.92;;;21.20;99.90;;;;;;5033800;28;20621;-64
2023/06/26 02:43:46;;;;;;;7.78;3.70;;;21.10;99.90;;;;;;5033488;28;20254;-64
2023/06/26 02:46:11;;;;;;;6.55;3.75;;;21.00;99.90;;;;;;5033806;28;20176;-64
2023/06/26 02:48:37;;;;;;;7.65;3.75;;;21.00;99.90;;;;;;5033795;28;20208;-64
2023/06/26 02:51:03;;;;;;;8.60;3.95;;;20.90;99.90;;;;;;5033651;28;20183;-64
2023/06/26 02:53:28;;;;;;;7.60;4.00;;;20.80;99.90;;;;;;5033554;28;20207;-64
2023/06/26 02:55:54;;;;;;;9.43;3.80;;;20.70;99.90;;;;;;5033503;28;20660;-65
2023/06/26 02:58:20;;;;;;;6.97;3.83;;;20.70;99.90;;;;;;5033412;28;20179;-64
2023/06/26 03:00:46;;;;;;;10.45;4.05;;;20.60;99.90;;;;;;5033595;28;20176;-63
2023/06/26 03:03:13;;;;;;;6.43;3.83;;;20.60;99.90;;;;;;5033423;28;20224;-65
2023/06/26 03:05:38;;;;;;;10.10;4.03;;;20.50;99.90;;;;;;5033310;28;20621;-64
2023/06/26 03:08:04;;;;;;;8.73;4.25;;;20.50;99.90;;;;;;5033359;28;20187;-64
2023/06/26 03:10:30;;;;;;;7.63;3.95;;;20.40;99.90;;;;;;5033225;28;20184;-64
2023/06/26 03:12:56;;;;;;;8.43;3.80;;;20.40;99.90;;;;;;5033096;28;20278;-64
2023/06/26 03:15:21;;;;;;;7.05;4.05;;;20.30;99.90;;;;;;5033454;28;20171;-64
2023/06/26 03:17:47;;;;;;;7.25;3.60;;;20.20;99.90;;;;;;5033074;28;20542;-64
2023/06/26 03:20:13;;;;;;;9.63;4.55;;;20.10;99.90;;;;;;5033247;28;20180;-64
2023/06/26 03:22:38;;;;;;;10.05;4.65;;;20.20;99.90;;;;;;5033060;28;20176;-64
2023/06/26 03:25:04;;;;;;;9.60;4.50;;;20.10;99.90;;;;;;5034887;28;20537;-64
2023/06/26 03:27:30;;;;;;;9.25;4.60;;;20.20;99.90;;;;;;5039614;28;20179;-64
2023/06/26 03:29:56;;;;;;;9.90;4.10;;;20.20;99.90;;;;;;5039858;28;20176;-64
2023/06/26 03:32:21;;;;;;;10.23;4.45;;;20.20;99.90;;;;;;5039915;28;20302;-65
2023/06/26 03:34:47;;;;;;;9.82;4.63;;;20.10;99.90;;;;;;5039776;28;20203;-65
2023/06/26 03:37:13;;;;;;;8.93;3.97;;;20.10;99.90;;;;;;5022020;28;20172;-64
2023/06/26 03:39:38;;;;;;;11.13;4.63;;;20.10;99.90;;;;;;5039651;28;20178;-64
2023/06/26 03:42:04;;;;;;;9.60;4.43;;;20.10;99.90;;;;;;5039519;28;20312;-63
2023/06/26 03:44:30;;;;;;;9.50;4.72;;;20.10;99.90;;;;;;5039438;28;20269;-65
2023/06/26 03:46:55;;;;;;;12.00;4.50;;;20.10;99.90;;;;;;5021960;28;20175;-63
2023/06/26 03:49:21;;;;;;;7.30;4.07;;;20.00;99.90;;;;;;5039645;28;20629;-63
2023/06/26 03:51:47;;;;;;;13.15;4.93;;;20.00;99.90;;;;;;5039579;28;20183;-64
2023/06/26 03:54:12;;;;;;;8.63;4.20;;;20.10;99.90;;;;;;5039459;28;20257;-64
2023/06/26 03:56:38;;;;;;;9.98;4.57;;;20.10;99.90;;;;;;5021689;28;20526;-64
2023/06/26 03:59:04;;;;;;;9.02;4.30;;;19.90;99.90;;;;;;5039578;28;20614;-63
2023/06/26 04:01:29;;;;;;;8.32;4.15;;;20.00;99.90;;;;;;5039412;28;20176;-63
2023/06/26 04:03:55;;;;;;;10.63;4.22;;;20.00;99.90;;;;;;5039545;28;20681;-63
2023/06/26 04:06:21;;;;;;;14.88;4.85;;;19.90;99.90;;;;;;5039450;28;20176;-63
2023/06/26 04:08:46;;;;;;;11.73;4.57;;;19.90;99.90;;;;;;5039380;28;20172;-63
2023/06/26 04:11:12;;;;;;;14.70;4.63;;;19.80;99.90;;;;;;5039270;28;20183;-64
2023/06/26 04:13:38;;;;;;;11.27;4.43;;;19.80;99.90;;;;;;5039506;28;20180;-63
2023/06/26 04:16:03;;;;;;;13.27;4.90;;;19.80;99.90;;;;;;5039391;28;20176;-63
2023/06/26 04:18:29;;;;;;;7.88;4.55;;;19.60;99.90;;;;;;5039211;28;20227;-63
2023/06/26 04:21:08;;;;;;;12.02;4.15;;;19.70;99.90;;;;;;5039431;28;20259;-63
2023/06/26 04:23:34;;;;;;;12.90;4.72;;;19.70;99.90;;;;;;5039106;28;20273;-63
2023/06/26 04:26:00;;;;;;;10.98;4.63;;;19.60;99.90;;;;;;5038990;28;20180;-63
2023/06/26 04:28:26;;;;;;;8.80;4.20;;;19.50;99.90;;;;;;5039382;28;20525;-64
2023/06/26 04:30:53;;;;;;;10.77;4.57;;;19.60;99.90;;;;;;5039208;28;20637;-63
2023/06/26 04:33:19;;;;;;;10.98;4.00;;;19.50;99.90;;;;;;5038984;28;20184;-63
2023/06/26 04:35:48;;;;;;;10.98;4.50;;;19.50;99.90;;;;;;5039187;28;20264;-64
2023/06/26 04:38:16;;;;;;;10.43;4.45;;;19.50;99.90;;;;;;5018169;28;20266;-63
2023/06/26 04:40:42;;;;;;;11.35;4.30;;;19.50;99.90;;;;;;5036965;28;20186;-63
2023/06/26 04:43:08;;;;;;;11.00;4.13;;;19.60;99.90;;;;;;5035503;28;20212;-63
2023/06/26 04:45:33;;;;;;;11.13;4.32;;;19.60;99.90;;;;;;5035925;28;20252;-63
2023/06/26 04:48:02;;;;;;;9.35;3.97;;;19.60;99.90;;;;;;5035505;28;20643;-63
2023/06/26 04:50:28;;;;;;;11.90;4.40;;;19.50;99.90;;;;;;5035847;28;20176;-63
2023/06/26 04:52:55;;;;;;;11.02;4.50;;;19.50;99.90;;;;;;5018104;28;20188;-64
2023/06/26 04:55:21;;;;;;;10.35;4.20;;;19.60;99.90;;;;;;5035845;28;20183;-63
2023/06/26 04:57:47;;;;;;;11.43;4.57;;;19.60;99.90;;;;;;5036055;28;20616;-64
2023/06/26 05:00:15;;;;;;;10.95;4.10;;;19.60;99.90;;;;;;5035732;28;20278;-63
2023/06/26 05:02:40;;;;;;;8.85;3.90;;;19.60;99.90;;;;;;5035524;28;20176;-64
2023/06/26 05:05:06;;;;;;;8.35;3.97;;;19.60;99.90;;;;;;5035314;28;20185;-64
2023/06/26 05:07:32;;;;;;;10.77;3.92;;;19.60;99.90;;;;;;5035301;28;20589;-63
2023/06/26 05:09:58;;;;;;;9.98;3.67;;;19.60;99.90;;;;;;5035717;28;20184;-63
2023/06/26 05:12:23;;;;;;;10.38;3.90;;;19.70;99.90;;;;;;5035558;28;20198;-63
2023/06/26 05:14:49;;;;;;;10.02;4.07;;;19.70;99.90;;;;;;5035431;28;20230;-64
2023/06/26 05:17:15;;;;;;;9.60;4.05;;;19.70;99.90;;;;;;5035260;28;20224;-63
2023/06/26 05:19:40;;;;;;;8.32;3.60;;;19.70;99.90;;;;;;5035359;28;20180;-64
2023/06/26 05:22:07;;;;;;;9.80;3.55;;;19.80;99.90;;;;;;5035152;28;20533;-64
2023/06/26 05:24:37;;;;;;;8.63;3.65;;;19.80;99.90;;;;;;5035258;28;20226;-63
2023/06/26 05:27:03;;;;;;;10.63;3.75;;;19.80;99.90;;;;;;5035227;28;20250;-63
2023/06/26 05:29:32;;;;;;;7.90;3.58;;;19.90;99.90;;;;;;5035359;28;20203;-64
2023/06/26 05:31:59;;;;;;;12.13;3.67;;;19.90;99.90;;;;;;5035141;28;20179;-63
2023/06/26 05:34:28;;;;;;;9.80;3.55;;;20.00;99.90;;;;;;5034764;28;20530;-63
2023/06/26 05:37:00;;;;;;;9.63;3.75;;;20.00;99.90;;;;;;5034759;28;20188;-63
2023/06/26 05:39:26;;;;;;;8.73;3.50;;;20.10;99.90;;;;;;5035040;28;20238;-63
2023/06/26 05:41:52;;;;;;;9.60;3.25;;;20.00;99.90;;;;;;5034749;28;20211;-63
2023/06/26 05:44:17;;;;;;;7.07;3.45;;;20.00;99.90;;;;;;5034732;28;20219;-64
2023/06/26 05:46:44;;;;;;;10.20;3.70;;;20.10;99.90;;;;;;5034761;28;20207;-63
2023/06/26 05:49:09;;;;;;;8.27;3.20;;;20.20;99.90;;;;;;5033468;28;20176;-63
2023/06/26 05:51:36;;;;;;;7.90;2.90;;;20.20;99.90;;;;;;5034816;28;20184;-63
2023/06/26 05:54:02;;;;;;;8.88;2.90;;;20.30;99.90;;;;;;5034708;28;20204;-64
2023/06/26 05:56:28;;;;;;;9.15;2.95;;;20.30;99.90;;;;;;5034648;28;20257;-63
2023/06/26 05:58:55;;;;;;;7.10;3.22;;;20.40;99.90;;;;;;5034679;28;20163;-64
2023/06/26 06:01:21;;;;;;;9.23;3.05;;;20.40;99.90;;;;;;5034504;28;20180;-63
2023/06/26 06:03:46;;;;;;;9.60;3.13;;;20.40;99.90;;;;;;5034398;28;20199;-63
2023/06/26 06:06:12;;;;;;;6.47;2.92;;;20.50;99.90;;;;;;5034286;28;20720;-64
2023/06/26 06:08:38;;;;;;;12.07;3.25;;;20.50;99.90;;;;;;5034557;28;20186;-64
2023/06/26 06:11:03;;;;;;;10.48;3.17;;;20.70;99.90;;;;;;5034336;28;20274;-64
2023/06/26 06:13:29;;;;;;;7.82;3.17;;;20.70;99.90;;;;;;5034310;28;20675;-64
2023/06/26 06:15:55;;;;;;;8.20;3.13;;;20.70;99.90;;;;;;5034411;28;20230;-64
2023/06/26 06:18:21;;;;;;;6.07;2.40;;;20.60;99.90;;;;;;5034269;28;20708;-63
2023/06/26 06:20:46;;;;;;;6.70;2.50;;;20.70;99.90;;;;;;5034027;28;20207;-64
2023/06/26 06:23:12;;;;;;;8.80;2.70;;;20.70;99.90;;;;;;5034117;28;20214;-64
2023/06/26 06:25:38;;;;;;;6.70;2.35;;;20.60;99.90;;;;;;5034055;28;20629;-63
2023/06/26 06:28:04;;;;;;;6.13;2.20;;;20.60;99.90;;;;;;5033995;28;20225;-63
2023/06/26 06:30:30;;;;;;;8.05;2.60;;;20.70;99.90;;;;;;5033912;28;20653;-63
2023/06/26 06:32:56;;;;;;;7.00;1.92;;;20.80;99.90;;;;;;5033774;28;20184;-63
2023/06/26 06:35:25;;;;;;;6.68;1.75;;;20.90;99.90;;;;;;5033723;28;20191;-63
2023/06/26 06:37:51;;;;;;;5.10;1.75;;;21.00;99.90;;;;;;5033893;28;20182;-63
2023/06/26 06:40:16;;;;;;;6.03;1.60;;;21.00;99.90;;;;;;5033916;28;20176;-63
2023/06/26 06:42:42;;;;;;;5.75;2.00;;;21.00;99.90;;;;;;5033922;28;20168;-64
2023/06/26 06:45:09;;;;;;;5.18;1.80;;;20.90;99.90;;;;;;5034023;28;20174;-63
2023/06/26 06:47:35;;;;;;;3.25;1.50;;;21.10;99.90;;;;;;5033719;28;20171;-63
2023/06/26 06:50:07;;;;;;;4.88;1.55;;;21.20;99.90;;;;;;5033527;28;20167;-63
2023/06/26 06:52:35;;;;;;;4.18;1.40;;;21.20;99.90;;;;;;5033665;28;20182;-63
2023/06/26 06:55:05;;;;;;;7.10;1.55;;;21.10;99.90;;;;;;5033657;28;20230;-64
2023/06/26 06:57:35;;;;;;;7.18;1.73;;;21.20;99.90;;;;;;5033403;28;20541;-64
2023/06/26 07:00:04;;;;;;;3.83;1.33;;;21.20;99.90;;;;;;5033308;28;20172;-64
2023/06/26 07:02:30;;;;;;;4.68;1.50;;;21.20;99.90;;;;;;5033289;28;20222;-64
2023/06/26 07:04:55;;;;;;;4.07;1.55;;;21.30;99.90;;;;;;5033510;28;20180;-63
2023/06/26 07:07:21;;;;;;;3.42;1.42;;;21.50;99.90;;;;;;5033518;28;20179;-63
2023/06/26 07:09:47;;;;;;;3.42;1.58;;;21.70;99.90;;;;;;5033421;28;20263;-64
2023/06/26 07:12:12;;;;;;;4.90;1.70;;;21.60;99.90;;;;;;5033326;28;20184;-63
2023/06/26 07:14:39;;;;;;;6.47;1.60;;;21.80;99.90;;;;;;5033478;28;20188;-64
2023/06/26 07:17:04;;;;;;;5.03;1.20;;;21.90;99.90;;;;;;5032990;28;20235;-63
2023/06/26 07:19:30;;;;;;;6.07;1.50;;;21.90;99.90;;;;;;5033477;28;20180;-64
2023/06/26 07:21:56;;;;;;;3.63;1.55;;;21.80;99.90;;;;;;5033598;28;20503;-64
2023/06/26 07:24:21;;;;;;;4.10;1.38;;;22.00;99.90;;;;;;5033181;28;20211;-63
2023/06/26 07:26:47;;;;;;;3.63;1.40;;;22.00;99.90;;;;;;5033092;28;20712;-64
2023/06/26 07:29:13;;;;;;;4.45;1.67;;;22.00;99.90;;;;;;5033061;28;20172;-64
2023/06/26 07:31:38;;;;;;;5.40;1.67;;;21.90;99.90;;;;;;5032972;28;20187;-64
2023/06/26 07:34:04;;;;;;;4.43;1.50;;;21.80;99.90;;;;;;5033215;28;20191;-64
2023/06/26 07:36:29;;;;;;;3.83;1.40;;;22.00;99.90;;;;;;5033231;28;20530;-64
2023/06/26 07:38:55;;;;;;;3.75;1.60;;;22.20;99.90;;;;;;5033035;28;20187;-64
2023/06/26 07:41:21;;;;;;;3.60;1.33;;;22.30;99.90;;;;;;5033028;28;20648;-64
2023/06/26 07:43:46;;;;;;;5.47;1.88;;;22.50;99.90;;;;;;5032876;28;20636;-64
2023/06/26 07:46:12;;;;;;;7.55;1.90;;;22.70;99.90;;;;;;5032855;28;20660;-63
2023/06/26 07:48:37;;;;;;;3.20;1.60;;;22.70;99.90;;;;;;5033120;28;20202;-64
2023/06/26 07:51:03;;;;;;;3.63;1.50;;;22.90;99.90;;;;;;5033075;28;20251;-63
2023/06/26 07:53:29;;;;;;;5.35;1.70;;;22.90;99.90;;;;;;5033055;28;20270;-64
2023/06/26 07:55:54;;;;;;;6.18;2.10;;;23.00;99.90;;;;;;5033004;28;20183;-64
2023/06/26 07:58:20;;;;;;;5.68;1.38;;;23.00;99.90;;;;;;5032718;28;20183;-64
2023/06/26 08:00:45;;;;;;;4.53;1.65;;;23.20;99.90;;;;;;5032731;28;20183;-64
2023/06/26 08:03:11;;;;;;;3.03;1.50;;;23.10;99.90;;;;;;5032891;28;20665;-64
2023/06/26 08:05:37;;;;;;;2.80;1.17;;;23.10;99.90;;;;;;5032994;28;20176;-64
2023/06/26 08:08:03;;;;;;;4.22;1.48;;;23.00;99.90;;;;;;5032774;28;20172;-63
2023/06/26 08:10:30;;;;;;;6.60;1.60;;;23.00;99.90;;;;;;5032268;28;20183;-63
2023/06/26 08:12:56;;;;;;;3.25;1.50;;;23.10;99.90;;;;;;5035036;28;20267;-64
2023/06/26 08:15:21;;;;;;;5.05;1.42;;;23.20;99.90;;;;;;5036889;28;20259;-64
2023/06/26 08:17:47;;;;;;;3.80;1.20;;;23.40;99.90;;;;;;5036528;28;20227;-63
2023/06/26 08:20:13;;;;;;;5.80;1.63;;;23.30;99.90;;;;;;5036420;28;20187;-63
2023/06/26 08:22:39;;;;;;;3.83;1.33;;;23.00;99.80;;;;;;5036286;28;20199;-63
2023/06/26 08:25:05;;;;;;;4.07;1.17;;;23.00;99.90;;;;;;5036356;28;20180;-64
2023/06/26 08:27:32;;;;;;;4.65;1.42;;;23.10;99.90;;;;;;5036151;28;20247;-64
2023/06/26 08:29:58;;;;;;;6.43;1.63;;;23.20;99.40;;;;;;5036091;28;20183;-63
2023/06/26 08:32:24;;;;;;;4.95;1.58;;;23.20;99.50;;;;;;5036364;28;20650;-63
2023/06/26 08:34:50;;;;;;;3.35;1.40;;;23.20;99.90;;;;;;5036075;28;20192;-63
2023/06/26 08:37:16;;;;;;;4.65;1.70;;;23.40;99.90;;;;;;5036002;28;20175;-63
2023/06/26 08:39:41;;;;;;;5.32;1.83;;;23.50;99.90;;;;;;5018383;28;20187;-63
2023/06/26 08:42:07;;;;;;;7.47;1.65;;;23.50;99.90;;;;;;5036011;28;20176;-64
2023/06/26 08:44:33;;;;;;;6.55;1.65;;;23.50;99.90;;;;;;5035752;28;20214;-63
2023/06/26 08:47:03;;;;;;;4.15;1.58;;;23.20;99.80;;;;;;5018305;28;20172;-63
2023/06/26 08:49:34;;;;;;;3.70;1.80;;;22.90;99.90;;;;;;5035969;28;20173;-64
2023/06/26 08:52:08;;;;;;;3.55;1.50;;;22.90;99.90;;;;;;5035941;28;20174;-64
2023/06/26 08:54:38;;;;;;;4.72;1.52;;;23.30;99.60;;;;;;5035849;28;20259;-64
2023/06/26 08:57:05;;;;;;;4.70;1.75;;;23.40;99.90;;;;;;5035606;28;20172;-64
2023/06/26 08:59:31;;;;;;;5.18;1.90;;;23.80;99.70;;;;;;5035841;28;20183;-64
2023/06/26 09:01:57;;;;;;;7.13;2.42;;;23.70;99.60;;;;;;5035806;28;20183;-64
2023/06/26 09:04:23;;;;;;;4.38;2.05;;;23.80;99.80;;;;;;5035464;28;20212;-63
2023/06/26 09:06:48;;;;;;;9.07;2.10;;;23.70;99.40;;;;;;5035587;28;20179;-64
2023/06/26 09:09:14;;;;;;;9.07;2.10;;;23.70;99.90;;;;;;5035589;28;20518;-64
2023/06/26 09:11:40;;;;;;;5.60;1.85;;;23.60;99.90;;;;;;5035264;28;20191;-64
2023/06/26 09:14:09;;;;;;;23.10;3.72;;;23.70;99.30;;;;;;5035537;28;20637;-64
2023/06/26 09:16:41;;;;;;;4.22;1.77;;;23.90;99.40;;;;;;5035526;28;20176;-64
2023/06/26 09:19:12;;;;;;;3.25;1.42;;;23.80;99.40;;;;;;5035013;28;20227;-64
2023/06/26 09:21:42;;;;;;;4.68;1.50;;;23.80;99.50;;;;;;5035247;28;20168;-64
2023/06/26 09:24:08;;;;;;;5.40;1.48;;;23.90;98.70;;;;;;5034665;28;20207;-64
2023/06/26 09:26:36;;;;;;;5.53;1.40;;;24.10;98.40;;;;;;5035251;28;20522;-64
2023/06/26 09:29:03;;;;;;;3.67;1.45;;;24.40;98.70;;;;;;5035180;28;20212;-64
2023/06/26 09:31:29;;;;;;;3.08;1.60;;;24.50;98.30;;;;;;5035151;28;20184;-64
2023/06/26 09:34:02;;;;;;;3.33;1.48;;;24.50;97.60;;;;;;5035067;28;20261;-64
2023/06/26 09:36:32;;;;;;;3.20;1.58;;;24.70;97.60;;;;;;5035030;28;20242;-64
2023/06/26 09:39:02;;;;;;;5.80;1.83;;;24.50;96.50;;;;;;5034872;28;20255;-64
2023/06/26 09:41:28;;;;;;;4.63;1.50;;;24.40;97.00;;;;;;5034948;28;20267;-64
2023/06/26 09:43:55;;;;;;;4.55;1.67;;;24.50;97.40;;;;;;5034660;28;20542;-64
2023/06/26 09:46:27;;;;;;;4.82;1.65;;;24.60;96.70;;;;;;5034781;28;20597;-65
2023/06/26 09:49:06;;;;;;;5.28;1.55;;;24.50;97.00;;;;;;5034660;28;20207;-65
2023/06/26 09:51:34;;;;;;;3.60;1.27;;;24.40;96.30;;;;;;5034602;28;20196;-64
2023/06/26 09:54:03;;;;;;;2.63;1.20;;;24.40;96.90;;;;;;5034541;28;20199;-64
2023/06/26 09:56:30;;;;;;;4.78;1.80;;;24.50;96.60;;;;;;5034646;28;20251;-65
2023/06/26 09:58:57;;;;;;;5.03;1.52;;;24.70;97.10;;;;;;5034504;28;20175;-65
2023/06/26 10:01:23;;;;;;;2.75;1.30;;;24.90;96.50;;;;;;5034453;28;20172;-65
2023/06/26 10:03:49;;;;;;;2.00;1.40;;;24.90;96.20;;;;;;5034253;28;20211;-65
2023/06/26 10:06:19;;;;;;;2.47;1.30;;;25.10;95.20;;;;;;5034528;28;20526;-65
2023/06/26 10:08:46;;;;;;;3.08;1.50;;;25.20;96.40;;;;;;5034266;28;20247;-64
2023/06/26 10:11:18;;;;;;;3.33;1.45;;;25.30;94.80;;;;;;5034449;28;20481;-64
2023/06/26 10:13:48;;;;;;;3.38;1.40;;;25.40;95.20;;;;;;5034373;28;20168;-65
2023/06/26 10:16:23;;;;;;;3.47;1.30;;;25.40;95.00;;;;;;5034171;28;20195;-65
2023/06/26 10:18:52;;;;;;;4.63;1.40;;;25.40;95.80;;;;;;5033958;28;20276;-65
2023/06/26 10:21:20;;;;;;;4.85;1.35;;;25.40;95.20;;;;;;5034284;28;20180;-64
2023/06/26 10:23:45;;;;;;;3.60;1.45;;;25.00;95.50;;;;;;5034114;28;20199;-64
2023/06/26 10:26:13;;;;;;;4.97;1.50;;;24.80;95.30;;;;;;5034062;28;20176;-64
2023/06/26 10:28:39;;;;;;;6.30;1.45;;;24.70;94.80;;;;;;5034007;28;20168;-64
2023/06/26 10:31:08;;;;;;;3.50;1.40;;;24.60;94.90;;;;;;5033826;28;20172;-64
2023/06/26 10:33:35;;;;;;;4.43;1.67;;;24.40;95.10;;;;;;5034010;28;20187;-64
2023/06/26 10:36:19;;;;;;;5.53;1.40;;;24.20;96.10;;;;;;5015591;28;20664;-65
2023/06/26 10:38:52;;;;;;;4.75;1.42;;;24.30;95.60;;;;;;5033895;28;20282;-64
2023/06/26 10:41:25;;;;;;;6.10;1.55;;;24.50;96.00;;;;;;5033615;28;20179;-64
2023/06/26 10:44:07;;;;;;;4.45;1.23;;;24.70;95.20;;;;;;5033839;28;20250;-64
2023/06/26 10:46:54;;;;;;;4.60;1.60;;;24.80;95.50;;;;;;5033854;28;20255;-64
2023/06/26 10:49:21;;;;;;;3.60;1.48;;;24.80;94.80;;;;;;5033611;28;20172;-64
2023/06/26 10:51:51;;;;;;;4.13;1.30;;;24.70;95.10;;;;;;5033460;28;20201;-64
2023/06/26 10:54:18;;;;;;;3.92;1.20;;;24.90;94.90;;;;;;5033709;28;20194;-64
2023/06/26 10:56:45;;;;;;;3.42;1.27;;;25.30;94.40;;;;;;5033532;28;20510;-64
2023/06/26 10:59:18;;;;;;;2.97;1.17;;;25.40;94.60;;;;;;5033555;28;20200;-64
2023/06/26 11:01:45;;;;;;;2.42;1.33;;;25.20;93.30;;;;;;5033535;28;20183;-64
2023/06/26 11:04:14;;;;;;;3.45;1.35;;;24.80;94.40;;;;;;5033269;28;20207;-64
2023/06/26 11:06:39;;;;;;;2.25;1.10;;;24.30;94.50;;;;;;5033530;28;20196;-64
2023/06/26 11:09:05;;;;;;;3.13;1.30;;;24.10;94.90;;;;;;5033559;28;20204;-64
2023/06/26 11:11:59;;;;;;;4.45;1.58;;;24.30;95.70;;;;;;5033300;28;20625;-65
2023/06/26 11:14:27;;;;;;;4.60;1.50;;;24.40;95.70;;;;;;5033236;28;20187;-64
2023/06/26 11:16:55;;;;;;;3.45;1.48;;;23.90;96.40;;;;;;5033053;28;20168;-64
2023/06/26 11:19:21;;;;;;;4.85;1.65;;;23.70;96.00;;;;;;5033446;28;20180;-64
2023/06/26 11:21:47;;;;;;;5.93;1.73;;;23.80;96.50;;;;;;5033374;28;20183;-64
2023/06/26 11:24:13;;;;;;;4.85;1.27;;;24.20;96.50;;;;;;5033110;28;20207;-65
2023/06/26 11:26:43;;;;;;;2.72;1.25;;;24.50;95.90;;;;;;5033211;28;20172;-64
2023/06/26 11:29:10;;;;;;;3.60;1.50;;;24.70;94.80;;;;;;5033052;28;20168;-65
2023/06/26 11:31:38;;;;;;;3.45;1.20;;;24.50;93.80;;;;;;5032944;28;20242;-64
2023/06/26 11:34:07;;;;;;;3.03;1.52;;;24.20;95.00;;;;;;5033029;28;20649;-64
2023/06/26 11:36:36;;;;;;;2.20;1.27;;;24.10;93.80;;;;;;5033258;28;20171;-64
2023/06/26 11:39:05;;;;;;;2.95;1.30;;;23.70;95.30;;;;;;5032989;28;20180;-65
2023/06/26 11:41:32;;;;;;;3.83;1.50;;;23.80;95.40;;;;;;5015585;28;20241;-64
2023/06/26 11:44:06;;;;;;;5.32;1.38;;;24.30;96.10;;;;;;5032770;28;20608;-65
2023/06/26 11:46:32;;;;;;;4.90;1.70;;;24.30;95.40;;;;;;5017504;28;20246;-64
2023/06/26 11:48:58;;;;;;;3.15;1.35;;;24.60;94.20;;;;;;5037111;28;20226;-64
2023/06/26 11:51:26;;;;;;;2.95;1.30;;;24.90;94.60;;;;;;5019586;28;20184;-64
2023/06/26 11:53:53;;;;;;;1.88;1.30;;;25.10;94.50;;;;;;5036832;28;20183;-64
2023/06/26 11:56:22;;;;;;;3.38;1.60;;;25.30;94.00;;;;;;5036812;28;20235;-64
2023/06/26 11:59:03;;;;;;;3.03;1.00;;;25.40;92.50;;;;;;5037070;28;20186;-64
2023/06/26 12:01:47;;;;;;;1.52;1.08;;;25.50;93.10;;;;;;5036607;28;20625;-65
2023/06/26 12:04:16;;;;;;;5.57;1.33;;;25.40;92.50;;;;;;5036687;28;20692;-64
2023/06/26 12:06:57;;;;;;;2.38;1.10;;;25.50;93.50;;;;;;5036607;28;20183;-65
2023/06/26 12:09:23;;;;;;;5.07;1.48;;;25.30;94.10;;;;;;5036804;28;20306;-65
2023/06/26 12:11:53;;;;;;;6.43;1.55;;;25.00;93.60;;;;;;5036700;28;20629;-64
2023/06/26 12:14:20;;;;;;;3.78;1.30;;;24.80;93.70;;;;;;5036569;28;20179;-64
2023/06/26 12:16:46;;;;;;;1.98;1.10;;;24.80;93.00;;;;;;5036373;28;20263;-64
2023/06/26 12:19:13;;;;;;;2.80;1.48;;;24.70;93.20;;;;;;5036320;28;20632;-65
2023/06/26 12:21:41;;;;;;;5.60;1.20;;;24.70;92.90;;;;;;5036292;28;20536;-65
2023/06/26 12:24:08;;;;;;;3.40;1.30;;;24.80;92.60;;;;;;5018705;28;20671;-65
2023/06/26 12:26:38;;;;;;;2.38;1.25;;;24.80;92.40;;;;;;5036567;28;20323;-64
2023/06/26 12:29:08;;;;;;;2.35;1.10;;;24.40;93.20;;;;;;5036248;28;20180;-65
2023/06/26 12:31:35;;;;;;;1.40;1.00;;;24.20;92.60;;;;;;5036720;28;20164;-65
2023/06/26 12:34:01;;;;;;;2.65;0.98;;;24.60;93.10;;;;;;5036005;28;20176;-64
2023/06/26 12:36:27;;;;;;;3.35;1.30;;;24.90;92.60;;;;;;5036367;28;20233;-64
2023/06/26 12:38:54;;;;;;;4.30;1.40;;;25.10;92.40;;;;;;5036275;28;20246;-65
2023/06/26 12:41:20;;;;;;;4.32;1.17;;;25.20;91.70;;;;;;5036176;28;20533;-64
2023/06/26 12:43:46;;;;;;;5.47;1.65;;;25.20;93.40;;;;;;5035939;28;20207;-64
2023/06/26 12:46:12;;;;;;;5.68;1.40;;;25.00;92.30;;;;;;5036024;28;20641;-64